Time;durP1;ratioP1;P1;durP2;ratioP2;P2;SDS_P1;SDS_P2;PMS_P1;PMS_P2;Temp;Humidity;BMP_temperature;BMP_pressure;BME280_temperature;BME280_humidity;BME280_pressure;Samples;Min_cycle;Max_cycle;Signal;HPM_P1;HPM_P2
2024/01/01 00:00:33;;;;;;;;;;;;;;;;;;5134944;28;19924;-40
2024/01/01 00:02:59;;;;;;;;;;;;;;;;;;5134658;28;19928;-39
2024/01/01 00:05:24;;;;;;;;;;;;;;;;;;5134912;28;19967;-40
2024/01/01 00:07:51;;;;;;;;;;;;;;;;;;5134896;27;20006;-43
2024/01/01 00:10:17;;;;;;;;;;;;;;;;;;5134562;27;19931;-42
2024/01/01 00:12:42;;;;;;;;;;;;;;;;;;5134878;28;19934;-40
2024/01/01 00:15:07;;;;;;;;;;;;;;;;;;5134470;28;20363;-43
2024/01/01 00:17:33;;;;;;;;;;;;;;;;;;5135007;28;20364;-40
2024/01/01 00:19:59;;;;;;;;;;;;;;;;;;5134695;28;20017;-40
2024/01/01 00:22:25;;;;;;;;;;;;;;;;;;5133726;27;20330;-41
2024/01/01 00:24:50;;;;;;;;;;;;;;;;;;5133564;27;20446;-41
2024/01/01 00:27:16;;;;;;;;;;;;;;;;;;5121364;28;20282;-40
2024/01/01 00:29:41;;;;;;;;;;;;;;;;;;5134291;28;19927;-42
2024/01/01 00:32:07;;;;;;;;;;;;;;;;;;5134535;28;20304;-41
2024/01/01 00:34:32;;;;;;;;;;;;;;;;;;5134162;28;19923;-40
2024/01/01 00:36:57;;;;;;;;;;;;;;;;;;5134362;28;20311;-41
2024/01/01 00:39:23;;;;;;;;;;;;;;;;;;5134033;28;19970;-40
2024/01/01 00:41:48;;;;;;;;;;;;;;;;;;5134358;28;20030;-42
2024/01/01 00:44:14;;;;;;;;;;;;;;;;;;5134170;28;20018;-41
2024/01/01 00:46:39;;;;;;;;;;;;;;;;;;5133589;28;20363;-42
2024/01/01 00:49:05;;;;;;;;;;;;;;;;;;5134320;28;19987;-39
2024/01/01 00:51:30;;;;;;;;;;;;;;;;;;5134193;28;19923;-39
2024/01/01 00:53:56;;;;;;;;;;;;;;;;;;5133625;28;19966;-40
2024/01/01 00:56:21;;;;;;;;;;;;;;;;;;5133927;28;20386;-42
2024/01/01 00:58:46;;;;;;;;;;;;;;;;;;5133433;28;19923;-41
2024/01/01 01:01:12;;;;;;;;;;;;;;;;;;5134014;28;19955;-40
2024/01/01 01:03:38;;;;;;;;;;;;;;;;;;5133655;28;20415;-39
2024/01/01 01:06:03;;;;;;;;;;;;;;;;;;5133865;28;20382;-39
2024/01/01 01:08:36;;;;;;;;;;;;;;;;;;5133990;28;19924;-40
2024/01/01 01:11:02;;;;;;;;;;;;;;;;;;5133697;28;20442;-40
2024/01/01 01:13:27;;;;;;;;;;;;;;;;;;5133876;28;19998;-40
2024/01/01 01:15:53;;;;;;;;;;;;;;;;;;5133603;28;19931;-41
2024/01/01 01:18:18;;;;;;;;;;;;;;;;;;5133804;28;19971;-40
2024/01/01 01:20:44;;;;;;;;;;;;;;;;;;5133626;28;20007;-41
2024/01/01 01:23:09;;;;;;;;;;;;;;;;;;5133335;28;19962;-39
2024/01/01 01:25:35;;;;;;;;;;;;;;;;;;5133211;28;19962;-40
2024/01/01 01:28:01;;;;;;;;;;;;;;;;;;5133495;28;20287;-39
2024/01/01 01:30:26;;;;;;;;;;;;;;;;;;5132803;28;20026;-39
2024/01/01 01:32:52;;;;;;;;;;;;;;;;;;5133548;28;20278;-40
2024/01/01 01:35:17;;;;;;;;;;;;;;;;;;5132658;27;19966;-39
2024/01/01 01:37:42;;;;;;;;;;;;;;;;;;5133395;28;20018;-40
2024/01/01 01:40:08;;;;;;;;;;;;;;;;;;5133138;28;20018;-41
2024/01/01 01:42:33;;;;;;;;;;;;;;;;;;5133313;28;20274;-40
2024/01/01 01:44:59;;;;;;;;;;;;;;;;;;5133294;28;19931;-40
2024/01/01 01:47:24;;;;;;;;;;;;;;;;;;5133111;28;19985;-41
2024/01/01 01:49:50;;;;;;;;;;;;;;;;;;5133401;28;19923;-40
2024/01/01 01:52:15;;;;;;;;;;;;;;;;;;5133442;28;19970;-41
2024/01/01 01:54:41;;;;;;;;;;;;;;;;;;5132957;28;20010;-41
2024/01/01 01:57:06;;;;;;;;;;;;;;;;;;5133258;28;20046;-41
2024/01/01 01:59:32;;;;;;;;;;;;;;;;;;5132648;28;19972;-43
2024/01/01 02:01:57;;;;;;;;;;;;;;;;;;5133032;28;20299;-43
2024/01/01 02:04:23;;;;;;;;;;;;;;;;;;5133136;28;20018;-40
2024/01/01 02:06:48;;;;;;;;;;;;;;;;;;5133190;28;20130;-42
2024/01/01 02:09:14;;;;;;;;;;;;;;;;;;5132862;28;20026;-41
2024/01/01 02:11:39;;;;;;;;;;;;;;;;;;5132833;28;20014;-41
2024/01/01 02:14:05;;;;;;;;;;;;;;;;;;5132983;28;19927;-41
2024/01/01 02:16:30;;;;;;;;;;;;;;;;;;5132596;28;20018;-41
2024/01/01 02:18:56;;;;;;;;;;;;;;;;;;5133182;28;20027;-41
2024/01/01 02:21:21;;;;;;;;;;;;;;;;;;5132929;28;20056;-40
2024/01/01 02:23:47;;;;;;;;;;;;;;;;;;5133110;28;20387;-41
2024/01/01 02:26:12;;;;;;;;;;;;;;;;;;5132350;28;20290;-40
2024/01/01 02:28:38;;;;;;;;;;;;;;;;;;5132735;28;19930;-41
2024/01/01 02:31:03;;;;;;;;;;;;;;;;;;5131914;28;19946;-41
2024/01/01 02:33:29;;;;;;;;;;;;;;;;;;5132405;28;19990;-43
2024/01/01 02:35:54;;;;;;;;;;;;;;;;;;5132161;28;19924;-43
2024/01/01 02:38:20;;;;;;;;;;;;;;;;;;5132116;28;19954;-42
2024/01/01 02:40:45;;;;;;;;;;;;;;;;;;5131964;28;20006;-41
2024/01/01 02:43:11;;;;;;;;;;;;;;;;;;5132227;28;19970;-42
2024/01/01 02:45:36;;;;;;;;;;;;;;;;;;5131999;28;19923;-41
2024/01/01 02:48:02;;;;;;;;;;;;;;;;;;5134328;27;19963;-41
2024/01/01 02:50:29;;;;;;;;;;;;;;;;;;5135792;28;19923;-45
2024/01/01 02:52:54;;;;;;;;;;;;;;;;;;5136177;28;20279;-40
2024/01/01 02:55:20;;;;;;;;;;;;;;;;;;5135044;28;19927;-40
2024/01/01 02:57:45;;;;;;;;;;;;;;;;;;5136127;28;19968;-43
2024/01/01 03:00:11;;;;;;;;;;;;;;;;;;5135842;28;20307;-42
2024/01/01 03:02:38;;;;;;;;;;;;;;;;;;5135600;28;19988;-44
2024/01/01 03:05:03;;;;;;;;;;;;;;;;;;5135944;28;19978;-42
2024/01/01 03:07:29;;;;;;;;;;;;;;;;;;5136048;28;19924;-45
2024/01/01 03:09:54;;;;;;;;;;;;;;;;;;5135626;28;19923;-43
2024/01/01 03:12:20;;;;;;;;;;;;;;;;;;5135880;28;19932;-40
2024/01/01 03:14:45;;;;;;;;;;;;;;;;;;5135071;28;19935;-41
2024/01/01 03:17:11;;;;;;;;;;;;;;;;;;5135220;28;20018;-40
2024/01/01 03:19:36;;;;;;;;;;;;;;;;;;5135387;28;19977;-44
2024/01/01 03:22:02;;;;;;;;;;;;;;;;;;5135227;28;20014;-42
2024/01/01 03:24:27;;;;;;;;;;;;;;;;;;5135319;28;19924;-42
2024/01/01 03:26:53;;;;;;;;;;;;;;;;;;5135423;28;20026;-41
2024/01/01 03:29:18;;;;;;;;;;;;;;;;;;5134943;28;19928;-41
2024/01/01 03:31:44;;;;;;;;;;;;;;;;;;5135366;28;19962;-42
2024/01/01 03:34:10;;;;;;;;;;;;;;;;;;5134828;27;20293;-42
2024/01/01 03:36:35;;;;;;;;;;;;;;;;;;5135302;27;19959;-42
2024/01/01 03:39:00;;;;;;;;;;;;;;;;;;5135525;28;20043;-41
2024/01/01 03:41:26;;;;;;;;;;;;;;;;;;5134937;28;19955;-42
2024/01/01 03:43:51;;;;;;;;;;;;;;;;;;5135537;28;19923;-41
2024/01/01 03:46:17;;;;;;;;;;;;;;;;;;5135052;28;19930;-41
2024/01/01 03:48:42;;;;;;;;;;;;;;;;;;5135398;28;19931;-43
2024/01/01 03:51:08;;;;;;;;;;;;;;;;;;5134871;28;20006;-42
2024/01/01 03:53:33;;;;;;;;;;;;;;;;;;5135428;28;19976;-44
2024/01/01 03:55:59;;;;;;;;;;;;;;;;;;5134303;28;19928;-40
2024/01/01 03:58:24;;;;;;;;;;;;;;;;;;5133877;27;19972;-44
2024/01/01 04:00:50;;;;;;;;;;;;;;;;;;5134075;28;20022;-44
2024/01/01 04:03:15;;;;;;;;;;;;;;;;;;5133740;28;19953;-40
2024/01/01 04:05:41;;;;;;;;;;;;;;;;;;5134188;28;19970;-40
2024/01/01 04:08:06;;;;;;;;;;;;;;;;;;5134246;28;19963;-41
2024/01/01 04:10:32;;;;;;;;;;;;;;;;;;5134678;28;20401;-43
2024/01/01 04:12:57;;;;;;;;;;;;;;;;;;5134323;28;20015;-41
2024/01/01 04:15:23;;;;;;;;;;;;;;;;;;5134464;28;20014;-42
2024/01/01 04:17:49;;;;;;;;;;;;;;;;;;5134930;27;19924;-41
2024/01/01 04:20:14;;;;;;;;;;;;;;;;;;5134404;28;19966;-41
2024/01/01 04:22:41;;;;;;;;;;;;;;;;;;5134899;27;20030;-41
2024/01/01 04:25:07;;;;;;;;;;;;;;;;;;5134918;27;20411;-42
2024/01/01 04:27:32;;;;;;;;;;;;;;;;;;5134789;28;19962;-40
2024/01/01 04:29:58;;;;;;;;;;;;;;;;;;5133974;28;19981;-45
2024/01/01 04:32:24;;;;;;;;;;;;;;;;;;5133866;28;20006;-41
2024/01/01 04:34:50;;;;;;;;;;;;;;;;;;5134082;27;19923;-42
2024/01/01 04:37:15;;;;;;;;;;;;;;;;;;5134439;28;19948;-42
2024/01/01 04:39:41;;;;;;;;;;;;;;;;;;5134079;28;19923;-39
2024/01/01 04:42:06;;;;;;;;;;;;;;;;;;5133754;28;19945;-41
2024/01/01 04:44:32;;;;;;;;;;;;;;;;;;5133962;27;19973;-42
2024/01/01 04:46:58;;;;;;;;;;;;;;;;;;5133663;28;19962;-40
2024/01/01 04:49:23;;;;;;;;;;;;;;;;;;5133941;28;19927;-40
2024/01/01 04:51:48;;;;;;;;;;;;;;;;;;5133792;28;19924;-43
2024/01/01 04:54:14;;;;;;;;;;;;;;;;;;5133735;28;20354;-41
2024/01/01 04:56:39;;;;;;;;;;;;;;;;;;5133954;28;20007;-40
2024/01/01 04:59:06;;;;;;;;;;;;;;;;;;5133789;28;19924;-40
2024/01/01 05:01:32;;;;;;;;;;;;;;;;;;5133164;27;19988;-42
2024/01/01 05:03:57;;;;;;;;;;;;;;;;;;5133549;28;20367;-42
2024/01/01 05:06:23;;;;;;;;;;;;;;;;;;5133155;27;20425;-41
2024/01/01 05:08:48;;;;;;;;;;;;;;;;;;5133555;28;19923;-43
2024/01/01 05:11:14;;;;;;;;;;;;;;;;;;5132693;27;19924;-43
2024/01/01 05:13:39;;;;;;;;;;;;;;;;;;5134005;28;19930;-41
2024/01/01 05:16:04;;;;;;;;;;;;;;;;;;5133261;28;20022;-41
2024/01/01 05:18:30;;;;;;;;;;;;;;;;;;5133972;28;20410;-41
2024/01/01 05:20:55;;;;;;;;;;;;;;;;;;5133409;28;20367;-43
2024/01/01 05:23:21;;;;;;;;;;;;;;;;;;5133847;28;20018;-44
2024/01/01 05:25:47;;;;;;;;;;;;;;;;;;5133246;27;19923;-41
2024/01/01 05:28:12;;;;;;;;;;;;;;;;;;5133601;28;20014;-43
2024/01/01 05:30:38;;;;;;;;;;;;;;;;;;5132970;28;19961;-40
2024/01/01 05:33:03;;;;;;;;;;;;;;;;;;5133131;27;19943;-43
2024/01/01 05:35:29;;;;;;;;;;;;;;;;;;5133144;27;19924;-42
2024/01/01 05:37:55;;;;;;;;;;;;;;;;;;5132282;28;19967;-40
2024/01/01 05:40:20;;;;;;;;;;;;;;;;;;5132799;28;20371;-41
2024/01/01 05:42:45;;;;;;;;;;;;;;;;;;5132930;28;20386;-42
2024/01/01 05:45:11;;;;;;;;;;;;;;;;;;5132500;28;20377;-41
2024/01/01 05:47:36;;;;;;;;;;;;;;;;;;5133428;28;19966;-41
2024/01/01 05:50:02;;;;;;;;;;;;;;;;;;5132809;28;19923;-42
2024/01/01 05:52:27;;;;;;;;;;;;;;;;;;5133145;28;20011;-41
2024/01/01 05:54:53;;;;;;;;;;;;;;;;;;5133053;28;19947;-41
2024/01/01 05:57:18;;;;;;;;;;;;;;;;;;5132875;28;20010;-39
2024/01/01 05:59:44;;;;;;;;;;;;;;;;;;5133369;28;19974;-42
2024/01/01 06:02:09;;;;;;;;;;;;;;;;;;5132521;28;20022;-43
2024/01/01 06:04:35;;;;;;;;;;;;;;;;;;5133179;28;20002;-41
2024/01/01 06:07:00;;;;;;;;;;;;;;;;;;5132616;28;20393;-43
2024/01/01 06:09:26;;;;;;;;;;;;;;;;;;5132919;28;19937;-40
2024/01/01 06:11:51;;;;;;;;;;;;;;;;;;5132853;28;19923;-41
2024/01/01 06:14:17;;;;;;;;;;;;;;;;;;5133021;28;20932;-44
2024/01/01 06:16:44;;;;;;;;;;;;;;;;;;5132572;28;20014;-41
2024/01/01 06:19:09;;;;;;;;;;;;;;;;;;5133089;28;19924;-42
2024/01/01 06:21:35;;;;;;;;;;;;;;;;;;5134370;27;19967;-40
2024/01/01 06:24:00;;;;;;;;;;;;;;;;;;5136778;28;19977;-43
2024/01/01 06:26:25;;;;;;;;;;;;;;;;;;5136636;28;19927;-43
2024/01/01 06:28:51;;;;;;;;;;;;;;;;;;5136829;28;20006;-40
2024/01/01 06:31:16;;;;;;;;;;;;;;;;;;5136673;28;20007;-44
2024/01/01 06:33:42;;;;;;;;;;;;;;;;;;5136119;28;19923;-40
2024/01/01 06:36:07;;;;;;;;;;;;;;;;;;5136400;27;19939;-41
2024/01/01 06:38:34;;;;;;;;;;;;;;;;;;5135709;28;20014;-40
2024/01/01 06:41:00;;;;;;;;;;;;;;;;;;5136251;28;19931;-41
2024/01/01 06:43:25;;;;;;;;;;;;;;;;;;5136324;28;19931;-42
2024/01/01 06:45:51;;;;;;;;;;;;;;;;;;5135790;28;19958;-41
2024/01/01 06:48:16;;;;;;;;;;;;;;;;;;5136297;28;20006;-43
2024/01/01 06:50:42;;;;;;;;;;;;;;;;;;5136256;28;19963;-41
2024/01/01 06:53:07;;;;;;;;;;;;;;;;;;5136373;28;20002;-41
2024/01/01 06:55:33;;;;;;;;;;;;;;;;;;5136271;28;19967;-40
2024/01/01 06:57:59;;;;;;;;;;;;;;;;;;5135712;28;19923;-42
2024/01/01 07:00:24;;;;;;;;;;;;;;;;;;5136141;28;20390;-43
2024/01/01 07:02:50;;;;;;;;;;;;;;;;;;5136064;28;20390;-41
2024/01/01 07:05:15;;;;;;;;;;;;;;;;;;5136218;28;19923;-42
2024/01/01 07:07:41;;;;;;;;;;;;;;;;;;5135891;28;19927;-41
2024/01/01 07:10:06;;;;;;;;;;;;;;;;;;5134973;28;19972;-41
2024/01/01 07:12:32;;;;;;;;;;;;;;;;;;5135993;28;20307;-40
2024/01/01 07:14:57;;;;;;;;;;;;;;;;;;5135517;28;19977;-40
2024/01/01 07:17:23;;;;;;;;;;;;;;;;;;5135726;28;19924;-40
2024/01/01 07:19:48;;;;;;;;;;;;;;;;;;5135948;28;19924;-42
2024/01/01 07:22:14;;;;;;;;;;;;;;;;;;5135507;28;19927;-40
2024/01/01 07:24:40;;;;;;;;;;;;;;;;;;5135898;28;19981;-41
2024/01/01 07:27:05;;;;;;;;;;;;;;;;;;5135778;28;20076;-41
2024/01/01 07:29:31;;;;;;;;;;;;;;;;;;5135315;28;19928;-43
2024/01/01 07:31:56;;;;;;;;;;;;;;;;;;5135317;28;20076;-41
2024/01/01 07:34:22;;;;;;;;;;;;;;;;;;5133987;27;20026;-40
2024/01/01 07:36:48;;;;;;;;;;;;;;;;;;5134837;28;19923;-44
2024/01/01 07:39:19;;;;;;;;;;;;;;;;;;5134392;28;19923;-41
2024/01/01 07:41:44;;;;;;;;;;;;;;;;;;5134785;27;19927;-40
2024/01/01 07:44:10;;;;;;;;;;;;;;;;;;5134669;28;20011;-40
2024/01/01 07:46:35;;;;;;;;;;;;;;;;;;5134629;28;19965;-40
2024/01/01 07:49:03;;;;;;;;;;;;;;;;;;5135280;28;20331;-42
2024/01/01 07:51:29;;;;;;;;;;;;;;;;;;5134848;27;19923;-43
2024/01/01 07:53:54;;;;;;;;;;;;;;;;;;5135055;28;19947;-40
2024/01/01 07:56:19;;;;;;;;;;;;;;;;;;5135289;28;19923;-42
2024/01/01 07:58:45;;;;;;;;;;;;;;;;;;5135187;28;19967;-42
2024/01/01 08:01:10;;;;;;;;;;;;;;;;;;5135332;28;19974;-40
2024/01/01 08:03:36;;;;;;;;;;;;;;;;;;5135081;28;19923;-41
2024/01/01 08:06:01;;;;;;;;;;;;;;;;;;5134985;28;19923;-40
2024/01/01 08:08:27;;;;;;;;;;;;;;;;;;5134874;28;19930;-40
2024/01/01 08:10:54;;;;;;;;;;;;;;;;;;5133984;28;20353;-41
2024/01/01 08:13:19;;;;;;;;;;;;;;;;;;5134801;27;19927;-39
2024/01/01 08:15:45;;;;;;;;;;;;;;;;;;5134611;28;20377;-41
2024/01/01 08:18:10;;;;;;;;;;;;;;;;;;5134667;28;19988;-40
2024/01/01 08:20:36;;;;;;;;;;;;;;;;;;5134870;28;20010;-39
2024/01/01 08:23:02;;;;;;;;;;;;;;;;;;5134763;28;20344;-39
2024/01/01 08:25:27;;;;;;;;;;;;;;;;;;5134852;28;19923;-41
2024/01/01 08:27:53;;;;;;;;;;;;;;;;;;5134806;28;19923;-40
2024/01/01 08:30:18;;;;;;;;;;;;;;;;;;5134560;28;20360;-40
2024/01/01 08:32:44;;;;;;;;;;;;;;;;;;5134907;28;19956;-40
2024/01/01 08:35:09;;;;;;;;;;;;;;;;;;5134647;27;20010;-41
2024/01/01 08:37:36;;;;;;;;;;;;;;;;;;5134074;28;19964;-42
2024/01/01 08:40:02;;;;;;;;;;;;;;;;;;5134030;28;19995;-40
2024/01/01 08:42:27;;;;;;;;;;;;;;;;;;5133742;28;20358;-40
2024/01/01 08:44:53;;;;;;;;;;;;;;;;;;5134157;27;19976;-39
2024/01/01 08:47:19;;;;;;;;;;;;;;;;;;5134493;28;19966;-39
2024/01/01 08:49:44;;;;;;;;;;;;;;;;;;5134292;28;19927;-40
2024/01/01 08:52:10;;;;;;;;;;;;;;;;;;5050667;28;19925;-43
2024/01/01 08:54:35;;;;;;;;;;;;;;;;;;5050619;28;20007;-39
2024/01/01 08:57:01;;;;;;;;;;;;;;;;;;5050542;28;19933;-40
2024/01/01 08:59:26;;;;;;;;;;;;;;;;;;5050342;28;20316;-39
2024/01/01 09:01:52;;;;;;;;;;;;;;;;;;5050568;28;19960;-43
2024/01/01 09:04:18;;;;;;;;;;;;;;;;;;5050181;28;20043;-41
2024/01/01 09:06:44;;;;;;;;;;;;;;;;;;5050396;28;19970;-41
2024/01/01 09:09:10;;;;;;;;;;;;;;;;;;5053691;28;20023;-42
2024/01/01 09:11:35;;;;;;;;;;;;;;;;;;5133635;28;19927;-39
2024/01/01 09:14:01;;;;;;;;;;;;;;;;;;5133747;28;20289;-43
2024/01/01 09:16:29;;;;;;;;;;;;;;;;;;5133307;28;20260;-41
2024/01/01 09:18:55;;;;;;;;;;;;;;;;;;5133776;28;19927;-42
2024/01/01 09:21:22;;;;;;;;;;;;;;;;;;5133920;28;19928;-42
2024/01/01 09:23:47;;;;;;;;;;;;;;;;;;5133802;28;19923;-40
2024/01/01 09:26:14;;;;;;;;;;;;;;;;;;5133753;28;20027;-40
2024/01/01 09:28:40;;;;;;;;;;;;;;;;;;5133877;28;20002;-39
2024/01/01 09:31:05;;;;;;;;;;;;;;;;;;5133859;28;20034;-39
2024/01/01 09:33:31;;;;;;;;;;;;;;;;;;5133848;28;19932;-41
2024/01/01 09:35:56;;;;;;;;;;;;;;;;;;5133712;28;19931;-41
2024/01/01 09:38:22;;;;;;;;;;;;;;;;;;5132823;28;19924;-42
2024/01/01 09:40:47;;;;;;;;;;;;;;;;;;5133282;28;19927;-41
2024/01/01 09:43:13;;;;;;;;;;;;;;;;;;5133014;28;19924;-40
2024/01/01 09:45:39;;;;;;;;;;;;;;;;;;5133110;27;19980;-39
2024/01/01 09:48:04;;;;;;;;;;;;;;;;;;5133567;28;19977;-41
2024/01/01 09:50:30;;;;;;;;;;;;;;;;;;5133167;28;20072;-39
2024/01/01 09:52:55;;;;;;;;;;;;;;;;;;5133496;28;20351;-40
2024/01/01 09:55:21;;;;;;;;;;;;;;;;;;5133273;27;20013;-39
2024/01/01 09:57:46;;;;;;;;;;;;;;;;;;5133101;28;19927;-41
2024/01/01 10:00:12;;;;;;;;;;;;;;;;;;5133143;28;19976;-39
2024/01/01 10:02:37;;;;;;;;;;;;;;;;;;5132911;28;20052;-39
2024/01/01 10:05:03;;;;;;;;;;;;;;;;;;5133272;28;20022;-42
2024/01/01 10:07:28;;;;;;;;;;;;;;;;;;5133319;28;19967;-40
2024/01/01 10:09:54;;;;;;;;;;;;;;;;;;5132300;28;19930;-41
2024/01/01 10:12:22;;;;;;;;;;;;;;;;;;5132959;28;19924;-41
2024/01/01 10:14:47;;;;;;;;;;;;;;;;;;5132969;28;19975;-41
2024/01/01 10:17:13;;;;;;;;;;;;;;;;;;5132403;28;19923;-43
2024/01/01 10:19:38;;;;;;;;;;;;;;;;;;5132994;28;19931;-40
2024/01/01 10:22:04;;;;;;;;;;;;;;;;;;5133046;28;19962;-42
2024/01/01 10:24:29;;;;;;;;;;;;;;;;;;5132897;28;20003;-42
2024/01/01 10:26:58;;;;;;;;;;;;;;;;;;5133112;28;19962;-39
2024/01/01 10:29:23;;;;;;;;;;;;;;;;;;5132590;28;19959;-40
2024/01/01 10:31:49;;;;;;;;;;;;;;;;;;5133113;28;19972;-39
2024/01/01 10:34:15;;;;;;;;;;;;;;;;;;5132993;28;19923;-40
2024/01/01 10:36:40;;;;;;;;;;;;;;;;;;5132981;28;20006;-41
2024/01/01 10:39:06;;;;;;;;;;;;;;;;;;5131897;28;19923;-39
2024/01/01 10:41:31;;;;;;;;;;;;;;;;;;5132250;28;19930;-40
2024/01/01 10:43:56;;;;;;;;;;;;;;;;;;5132594;28;19966;-41
2024/01/01 10:46:22;;;;;;;;;;;;;;;;;;5131640;28;19923;-40
2024/01/01 10:48:47;;;;;;;;;;;;;;;;;;5132831;28;19924;-40
2024/01/01 10:51:13;;;;;;;;;;;;;;;;;;5132545;28;19924;-42
2024/01/01 10:53:38;;;;;;;;;;;;;;;;;;5132653;28;20006;-42
2024/01/01 10:56:04;;;;;;;;;;;;;;;;;;5132742;28;19945;-41
2024/01/01 10:58:29;;;;;;;;;;;;;;;;;;5132592;28;19924;-42
2024/01/01 11:00:56;;;;;;;;;;;;;;;;;;5132164;28;20023;-44
2024/01/01 11:03:21;;;;;;;;;;;;;;;;;;5131797;27;20295;-40
2024/01/01 11:05:50;;;;;;;;;;;;;;;;;;5131939;28;20426;-40
2024/01/01 11:08:15;;;;;;;;;;;;;;;;;;5132853;27;20012;-42
2024/01/01 11:10:42;;;;;;;;;;;;;;;;;;5135075;28;20100;-41
2024/01/01 11:13:11;;;;;;;;;;;;;;;;;;5135340;27;19931;-40
2024/01/01 11:15:36;;;;;;;;;;;;;;;;;;5135081;27;19923;-41
2024/01/01 11:18:02;;;;;;;;;;;;;;;;;;5135322;28;20242;-42
2024/01/01 11:20:27;;;;;;;;;;;;;;;;;;5135171;28;19977;-40
2024/01/01 11:22:53;;;;;;;;;;;;;;;;;;5135432;28;19974;-40
2024/01/01 11:25:18;;;;;;;;;;;;;;;;;;5135664;28;20002;-40
2024/01/01 11:27:47;;;;;;;;;;;;;;;;;;5135402;28;19953;-39
2024/01/01 11:30:14;;;;;;;;;;;;;;;;;;5135189;28;19934;-39
2024/01/01 11:32:40;;;;;;;;;;;;;;;;;;5135694;28;19923;-41
2024/01/01 11:35:06;;;;;;;;;;;;;;;;;;5135740;27;19938;-42
2024/01/01 11:37:32;;;;;;;;;;;;;;;;;;5135560;28;19927;-41
2024/01/01 11:39:57;;;;;;;;;;;;;;;;;;5135151;28;19923;-40
2024/01/01 11:42:22;;;;;;;;;;;;;;;;;;5134834;28;19931;-40
2024/01/01 11:44:48;;;;;;;;;;;;;;;;;;5135130;28;19931;-39
2024/01/01 11:47:13;;;;;;;;;;;;;;;;;;5134686;28;19970;-43
2024/01/01 11:49:39;;;;;;;;;;;;;;;;;;5135311;28;19967;-41
2024/01/01 11:52:05;;;;;;;;;;;;;;;;;;5135353;28;20010;-41
2024/01/01 11:54:30;;;;;;;;;;;;;;;;;;5135357;28;19931;-41
2024/01/01 11:56:57;;;;;;;;;;;;;;;;;;5135379;28;20009;-39
2024/01/01 11:59:24;;;;;;;;;;;;;;;;;;5135225;28;19932;-41
2024/01/01 12:01:49;;;;;;;;;;;;;;;;;;5135272;28;19923;-41
2024/01/01 12:04:14;;;;;;;;;;;;;;;;;;5135109;28;19951;-42
2024/01/01 12:06:40;;;;;;;;;;;;;;;;;;5135148;28;19924;-42
2024/01/01 12:09:06;;;;;;;;;;;;;;;;;;5134990;28;19924;-41
2024/01/01 12:11:31;;;;;;;;;;;;;;;;;;5134655;28;19923;-43
2024/01/01 12:13:57;;;;;;;;;;;;;;;;;;5134919;28;19923;-40
2024/01/01 12:16:22;;;;;;;;;;;;;;;;;;5134602;28;20018;-39
2024/01/01 12:18:48;;;;;;;;;;;;;;;;;;5134674;27;19973;-43
2024/01/01 12:21:13;;;;;;;;;;;;;;;;;;5134606;28;19974;-42
2024/01/01 12:23:39;;;;;;;;;;;;;;;;;;5134998;28;20390;-41
2024/01/01 12:26:05;;;;;;;;;;;;;;;;;;5134688;28;19998;-40
2024/01/01 12:28:30;;;;;;;;;;;;;;;;;;5134390;28;19930;-39
2024/01/01 12:30:55;;;;;;;;;;;;;;;;;;5134788;28;20018;-41
2024/01/01 12:33:21;;;;;;;;;;;;;;;;;;5134340;28;19970;-40
2024/01/01 12:35:47;;;;;;;;;;;;;;;;;;5134694;27;19924;-39
2024/01/01 12:38:13;;;;;;;;;;;;;;;;;;5134656;28;19998;-39
2024/01/01 12:40:39;;;;;;;;;;;;;;;;;;5134022;28;19951;-43
2024/01/01 12:43:05;;;;;;;;;;;;;;;;;;5133941;27;20259;-40
2024/01/01 12:45:30;;;;;;;;;;;;;;;;;;5133882;28;19924;-40
2024/01/01 12:47:57;;;;;;;;;;;;;;;;;;5134346;28;19928;-41
2024/01/01 12:50:22;;;;;;;;;;;;;;;;;;5133743;28;19930;-40
2024/01/01 12:52:48;;;;;;;;;;;;;;;;;;5134465;28;19993;-41
2024/01/01 12:55:14;;;;;;;;;;;;;;;;;;5134369;28;20294;-41
2024/01/01 12:57:39;;;;;;;;;;;;;;;;;;5134227;28;20041;-40
2024/01/01 13:00:06;;;;;;;;;;;;;;;;;;5134225;28;20418;-40
2024/01/01 13:02:32;;;;;;;;;;;;;;;;;;5134183;27;19927;-40
2024/01/01 13:04:57;;;;;;;;;;;;;;;;;;5134221;28;20331;-40
2024/01/01 13:07:23;;;;;;;;;;;;;;;;;;5134349;28;19967;-40
2024/01/01 13:09:48;;;;;;;;;;;;;;;;;;5133871;28;19934;-39
2024/01/01 13:12:14;;;;;;;;;;;;;;;;;;5133906;28;19967;-39
2024/01/01 13:14:41;;;;;;;;;;;;;;;;;;5133821;28;19955;-39
2024/01/01 13:17:07;;;;;;;;;;;;;;;;;;5133815;28;20007;-43
2024/01/01 13:19:32;;;;;;;;;;;;;;;;;;5133929;28;20052;-39
2024/01/01 13:21:58;;;;;;;;;;;;;;;;;;5133667;28;19927;-44
2024/01/01 13:24:23;;;;;;;;;;;;;;;;;;5133824;28;20383;-40
2024/01/01 13:26:48;;;;;;;;;;;;;;;;;;5133740;28;19973;-40
2024/01/01 13:29:14;;;;;;;;;;;;;;;;;;5133892;28;19927;-42
2024/01/01 13:31:39;;;;;;;;;;;;;;;;;;5132933;27;19981;-40
2024/01/01 13:34:05;;;;;;;;;;;;;;;;;;5133343;28;19976;-40
2024/01/01 13:36:31;;;;;;;;;;;;;;;;;;5133669;27;20386;-41
2024/01/01 13:38:56;;;;;;;;;;;;;;;;;;5133792;27;19928;-40
2024/01/01 13:41:22;;;;;;;;;;;;;;;;;;5133356;28;19978;-40
2024/01/01 13:43:47;;;;;;;;;;;;;;;;;;5133627;28;20018;-40
2024/01/01 13:46:14;;;;;;;;;;;;;;;;;;5132427;28;20038;-41
2024/01/01 13:48:39;;;;;;;;;;;;;;;;;;5133611;27;19924;-40
2024/01/01 13:51:06;;;;;;;;;;;;;;;;;;5132114;28;21380;-40
2024/01/01 13:53:32;;;;;;;;;;;;;;;;;;5133276;27;19932;-41
2024/01/01 13:55:57;;;;;;;;;;;;;;;;;;5133473;27;19924;-40
2024/01/01 13:58:23;;;;;;;;;;;;;;;;;;5133341;28;19934;-42
2024/01/01 14:00:48;;;;;;;;;;;;;;;;;;5133314;28;20608;-40
2024/01/01 14:03:15;;;;;;;;;;;;;;;;;;5133374;28;19927;-38
2024/01/01 14:05:42;;;;;;;;;;;;;;;;;;5133262;27;20309;-39
2024/01/01 14:08:07;;;;;;;;;;;;;;;;;;5133160;27;19927;-39
2024/01/01 14:10:33;;;;;;;;;;;;;;;;;;5133007;28;19923;-42
2024/01/01 14:12:58;;;;;;;;;;;;;;;;;;5132916;28;19967;-41
2024/01/01 14:15:24;;;;;;;;;;;;;;;;;;5132838;28;20435;-39
2024/01/01 14:17:50;;;;;;;;;;;;;;;;;;5133129;27;19923;-39
2024/01/01 14:20:16;;;;;;;;;;;;;;;;;;5132845;27;19927;-41
2024/01/01 14:22:42;;;;;;;;;;;;;;;;;;5132987;28;20438;-39
2024/01/01 14:25:07;;;;;;;;;;;;;;;;;;5133078;28;19931;-42
2024/01/01 14:27:33;;;;;;;;;;;;;;;;;;5132956;28;19986;-39
2024/01/01 14:29:58;;;;;;;;;;;;;;;;;;5132928;28;20010;-40
2024/01/01 14:32:24;;;;;;;;;;;;;;;;;;5133063;28;19924;-40
2024/01/01 14:34:49;;;;;;;;;;;;;;;;;;5132347;28;19923;-39
2024/01/01 14:37:14;;;;;;;;;;;;;;;;;;5131441;27;19927;-40
2024/01/01 14:39:40;;;;;;;;;;;;;;;;;;5131927;28;20005;-40
2024/01/01 14:42:05;;;;;;;;;;;;;;;;;;5132654;27;19923;-40
2024/01/01 14:44:31;;;;;;;;;;;;;;;;;;5134746;28;19924;-41
2024/01/01 14:46:56;;;;;;;;;;;;;;;;;;5134964;28;19937;-40
2024/01/01 14:49:22;;;;;;;;;;;;;;;;;;5134527;28;20017;-41
2024/01/01 14:51:47;;;;;;;;;;;;;;;;;;5134924;28;20409;-41
2024/01/01 14:54:13;;;;;;;;;;;;;;;;;;5135212;28;19929;-39
2024/01/01 14:56:39;;;;;;;;;;;;;;;;;;5134608;28;19931;-40
2024/01/01 14:59:04;;;;;;;;;;;;;;;;;;5135888;27;20045;-40
2024/01/01 15:01:30;;;;;;;;;;;;;;;;;;5135282;28;20278;-41
2024/01/01 15:03:55;;;;;;;;;;;;;;;;;;5134842;28;20323;-42
2024/01/01 15:06:20;;;;;;;;;;;;;;;;;;5135662;28;20018;-39
2024/01/01 15:08:46;;;;;;;;;;;;;;;;;;5135127;28;20014;-39
2024/01/01 15:11:12;;;;;;;;;;;;;;;;;;5135550;28;19974;-43
2024/01/01 15:13:37;;;;;;;;;;;;;;;;;;5135594;28;19975;-39
2024/01/01 15:16:03;;;;;;;;;;;;;;;;;;5135020;28;20379;-39
2024/01/01 15:18:28;;;;;;;;;;;;;;;;;;5135858;28;19939;-41
2024/01/01 15:20:54;;;;;;;;;;;;;;;;;;5135582;28;20002;-39
2024/01/01 15:23:20;;;;;;;;;;;;;;;;;;5135756;28;20439;-39
2024/01/01 15:25:46;;;;;;;;;;;;;;;;;;5135778;27;19927;-40
2024/01/01 15:28:11;;;;;;;;;;;;;;;;;;5135441;28;19927;-40
2024/01/01 15:30:38;;;;;;;;;;;;;;;;;;5135643;28;20353;-38
2024/01/01 15:33:03;;;;;;;;;;;;;;;;;;5135795;27;20005;-39
2024/01/01 15:35:29;;;;;;;;;;;;;;;;;;5135596;27;20238;-41
2024/01/01 15:37:55;;;;;;;;;;;;;;;;;;5135324;28;19988;-41
2024/01/01 15:40:20;;;;;;;;;;;;;;;;;;5135356;28;19973;-41
2024/01/01 15:42:46;;;;;;;;;;;;;;;;;;5135264;28;19970;-43
2024/01/01 15:45:11;;;;;;;;;;;;;;;;;;5135126;28;19923;-40
2024/01/01 15:47:37;;;;;;;;;;;;;;;;;;5135197;28;19982;-41
2024/01/01 15:50:02;;;;;;;;;;;;;;;;;;5135287;28;19989;-39
2024/01/01 15:52:29;;;;;;;;;;;;;;;;;;5135275;28;19934;-39
2024/01/01 15:54:54;;;;;;;;;;;;;;;;;;5134486;27;19969;-39
2024/01/01 15:57:21;;;;;;;;;;;;;;;;;;5135206;28;20325;-41
2024/01/01 15:59:46;;;;;;;;;;;;;;;;;;5135407;28;19923;-42
2024/01/01 16:02:12;;;;;;;;;;;;;;;;;;5134965;28;20215;-41
2024/01/01 16:04:37;;;;;;;;;;;;;;;;;;5135249;28;19927;-40
2024/01/01 16:07:03;;;;;;;;;;;;;;;;;;5134760;28;20419;-40
2024/01/01 16:09:28;;;;;;;;;;;;;;;;;;5134767;28;19996;-41
2024/01/01 16:11:54;;;;;;;;;;;;;;;;;;5134974;28;19930;-41
2024/01/01 16:14:20;;;;;;;;;;;;;;;;;;5135081;27;19960;-41
2024/01/01 16:16:45;;;;;;;;;;;;;;;;;;5134323;28;19923;-39
2024/01/01 16:19:12;;;;;;;;;;;;;;;;;;5134843;28;19959;-40
2024/01/01 16:21:45;;;;;;;;;;;;;;;;;;5134995;28;20010;-41
2024/01/01 16:24:10;;;;;;;;;;;;;;;;;;5134639;28;19968;-40
2024/01/01 16:26:36;;;;;;;;;;;;;;;;;;5134538;28;20365;-40
2024/01/01 16:29:02;;;;;;;;;;;;;;;;;;5134898;27;19923;-39
2024/01/01 16:31:27;;;;;;;;;;;;;;;;;;5134786;28;19930;-42
2024/01/01 16:33:53;;;;;;;;;;;;;;;;;;5134776;28;19927;-41